createdAt,value
2023-01-22T00:01:22.821Z,101300.81
2023-01-22T00:03:56.439Z,101343.31
2023-01-22T00:06:29.547Z,101302.88
2023-01-22T00:08:57.963Z,101311.72
2023-01-22T00:11:29.189Z,101303.84
2023-01-22T00:14:02.581Z,101301.91
2023-01-22T00:16:38.699Z,101292.75
2023-01-22T00:19:07.377Z,101289.94
2023-01-22T00:21:37.038Z,101302.50
2023-01-22T00:24:07.283Z,101299.50
2023-01-22T00:26:42.617Z,101311.47
2023-01-22T00:29:24.788Z,101277.81
2023-01-22T00:31:55.962Z,101291.91
2023-01-22T00:34:24.455Z,101304.44
2023-01-22T00:36:56.479Z,101297.94
2023-01-22T00:39:27.666Z,101299.47
2023-01-22T00:42:00.106Z,101299.63
2023-01-22T00:44:34.815Z,101286.53
2023-01-22T00:47:04.707Z,101291.06
2023-01-22T00:49:34.027Z,101302.03
2023-01-22T00:52:05.883Z,101296.56
2023-01-22T00:54:41.220Z,101298.25
2023-01-22T00:57:18.387Z,101291.06
2023-01-22T00:59:47.965Z,101286.13
2023-01-22T01:02:34.507Z,101283.31
2023-01-22T01:05:03.509Z,101281.34
2023-01-22T01:07:33.695Z,101283.59
2023-01-22T01:10:08.487Z,101287.28
2023-01-22T01:12:38.707Z,101287.53
2023-01-22T01:15:10.204Z,101280.63
2023-01-22T01:17:38.416Z,101283.72
2023-01-22T01:20:10.582Z,101294.16
2023-01-22T01:22:42.773Z,101278.94
2023-01-22T01:25:17.522Z,101289.38
2023-01-22T01:28:00.585Z,101288.41
2023-01-22T01:30:28.344Z,101289.66
2023-01-22T01:32:59.410Z,101288.09
2023-01-22T01:35:29.139Z,101285.41
2023-01-22T01:38:00.575Z,101298.97
2023-01-22T01:40:30.363Z,101287.97
2023-01-22T01:43:04.112Z,101282.06
2023-01-22T01:45:35.928Z,101291.78
2023-01-22T01:48:13.181Z,101285.41
2023-01-22T01:50:44.934Z,101290.94
2023-01-22T01:53:13.034Z,101286.13
2023-01-22T01:55:42.394Z,101284.56
2023-01-22T01:58:21.686Z,101276.13
2023-01-22T02:00:53.408Z,101289.78
2023-01-22T02:03:24.180Z,101268.09
2023-01-22T02:05:55.937Z,101273.59
2023-01-22T02:08:24.979Z,101271.22
2023-01-22T02:10:59.287Z,101288.09
2023-01-22T02:13:38.213Z,101275.16
2023-01-22T02:16:13.116Z,101266.81
2023-01-22T02:18:41.525Z,101262.63
2023-01-22T02:21:33.312Z,101256.41
2023-01-22T02:24:04.663Z,101270.22
2023-01-22T02:26:35.736Z,101261.63
2023-01-22T02:29:10.117Z,101267.25
2023-01-22T02:31:49.469Z,101287.56
2023-01-22T02:34:24.426Z,101264.31
2023-01-22T02:36:56.127Z,101271.19
2023-01-22T02:39:27.841Z,101276.28
2023-01-22T02:42:00.165Z,101277.13
2023-01-22T02:44:35.616Z,101258.81
2023-01-22T02:47:05.244Z,101266.53
2023-01-22T02:49:35.713Z,101267.81
2023-01-22T02:52:05.903Z,101272.88
2023-01-22T02:54:37.486Z,101271.75
2023-01-22T02:57:09.043Z,101275.03
2023-01-22T02:59:39.415Z,101271.91
2023-01-22T03:02:11.905Z,101276.25
2023-01-22T03:04:40.014Z,101273.88
2023-01-22T03:07:11.635Z,101270.50
2023-01-22T03:09:42.124Z,101268.50
2023-01-22T03:12:10.575Z,101285.28
2023-01-22T03:14:56.875Z,101271.19
2023-01-22T03:17:42.177Z,101266.28
2023-01-22T03:20:33.778Z,101280.38
2023-01-22T03:23:05.938Z,101269.81
2023-01-22T03:25:36.313Z,101275.41
2023-01-22T03:28:19.734Z,101270.06
2023-01-22T03:30:48.866Z,101273.88
2023-01-22T03:33:26.313Z,101276.84
2023-01-22T03:35:54.940Z,101267.81
2023-01-22T03:38:24.747Z,101274.44
2023-01-22T03:41:00.281Z,101273.59
2023-01-22T03:43:34.597Z,101272.03
2023-01-22T03:46:10.744Z,101284.03
2023-01-22T03:48:42.488Z,101275.84
2023-01-22T03:51:16.179Z,101266.97
2023-01-22T03:53:48.495Z,101276.13
2023-01-22T03:56:21.803Z,101281.91
2023-01-22T03:58:52.963Z,101272.34
2023-01-22T04:01:26.716Z,101278.38
2023-01-22T04:03:56.385Z,101276.00
2023-01-22T04:06:28.174Z,101283.06
2023-01-22T04:09:00.118Z,101272.34
2023-01-22T04:11:32.187Z,101268.38
2023-01-22T04:14:03.281Z,101274.44
2023-01-22T04:16:32.105Z,101286.72
2023-01-22T04:19:04.983Z,101292.34
2023-01-22T04:21:41.800Z,101295.59
2023-01-22T04:24:12.713Z,101283.03
2023-01-22T04:26:42.179Z,101288.53
2023-01-22T04:29:10.511Z,101289.22
2023-01-22T04:31:43.310Z,101292.34
2023-01-22T04:34:16.670Z,101302.06
2023-01-22T04:36:46.358Z,101298.69
2023-01-22T04:39:16.009Z,101295.88
2023-01-22T04:41:50.195Z,101291.06
2023-01-22T04:44:19.331Z,101314.31
2023-01-22T04:46:49.465Z,101296.84
2023-01-22T04:49:20.770Z,101307.56
2023-01-22T04:51:50.782Z,101314.91
2023-01-22T04:54:25.272Z,101303.34
2023-01-22T04:56:57.370Z,101289.22
2023-01-22T04:59:27.405Z,101299.94
2023-01-22T05:01:58.813Z,101298.25
2023-01-22T05:04:33.562Z,101289.66
2023-01-22T05:07:03.297Z,101286.00
2023-01-22T05:09:35.367Z,101302.63
2023-01-22T05:12:04.564Z,101291.63
2023-01-22T05:14:37.171Z,101300.06
2023-01-22T05:17:05.839Z,101302.22
2023-01-22T05:19:36.371Z,101308.69
2023-01-22T05:22:06.927Z,101297.84
2023-01-22T05:24:39.382Z,101308.69
2023-01-22T05:27:07.088Z,101295.84
2023-01-22T05:29:36.570Z,101307.84
2023-01-22T05:32:16.811Z,101305.03
2023-01-22T05:34:44.578Z,101297.41
2023-01-22T05:37:14.009Z,101307.28
2023-01-22T05:39:43.996Z,101313.63
2023-01-22T05:42:15.890Z,101317.28
2023-01-22T05:44:44.769Z,101312.75
2023-01-22T05:47:18.110Z,101311.50
2023-01-22T05:50:19.636Z,101311.50
2023-01-22T05:52:47.827Z,101314.31
2023-01-22T05:55:19.164Z,101318.41
2023-01-22T05:57:51.841Z,101310.38
2023-01-22T06:00:20.715Z,101311.38
2023-01-22T06:02:55.742Z,101315.47
2023-01-22T06:05:26.731Z,101310.78
2023-01-22T06:08:00.314Z,101314.31
2023-01-22T06:10:31.333Z,101318.69
2023-01-22T06:13:01.834Z,101328.03
2023-01-22T06:15:29.895Z,101324.75
2023-01-22T06:18:03.376Z,101321.94
2023-01-22T06:20:34.503Z,101325.19
2023-01-22T06:23:07.959Z,101331.50
2023-01-22T06:25:44.515Z,101322.50
2023-01-22T06:28:21.662Z,101329.72
2023-01-22T06:30:49.967Z,101329.28
2023-01-22T06:33:19.568Z,101343.66
2023-01-22T06:35:50.189Z,101350.44
2023-01-22T06:38:22.135Z,101336.88
2023-01-22T06:40:54.618Z,101360.44
2023-01-22T06:43:24.351Z,101329.84
2023-01-22T06:45:55.814Z,101336.47
2023-01-22T06:48:23.964Z,101351.16
2023-01-22T06:50:52.527Z,101350.44
2023-01-22T06:53:20.886Z,101351.81
2023-01-22T06:55:49.867Z,101348.88
2023-01-22T06:58:21.799Z,101350.84
2023-01-22T07:00:49.562Z,101352.41
2023-01-22T07:03:20.605Z,101365.22
2023-01-22T07:05:58.259Z,101366.06
2023-01-22T07:08:30.433Z,101368.34
2023-01-22T07:11:01.660Z,101369.47
2023-01-22T07:13:31.991Z,101373.84
2023-01-22T07:16:05.313Z,101367.91
2023-01-22T07:18:35.698Z,101377.22
2023-01-22T07:21:06.183Z,101369.59
2023-01-22T07:23:36.491Z,101380.31
2023-01-22T07:26:04.461Z,101360.84
2023-01-22T07:28:34.091Z,101383.72
2023-01-22T07:31:05.234Z,101376.06
2023-01-22T07:33:36.226Z,101391.00
2023-01-22T07:36:07.003Z,101391.88
2023-01-22T07:38:39.305Z,101385.81
2023-01-22T07:41:20.525Z,101389.66
2023-01-22T07:44:00.124Z,101403.47
2023-01-22T07:46:31.502Z,101408.38
2023-01-22T07:49:00.759Z,101402.22
2023-01-22T07:51:29.163Z,101406.41
2023-01-22T07:53:59.594Z,101404.72
2023-01-22T07:56:29.126Z,101400.06
2023-01-22T07:58:58.960Z,101409.94
2023-01-22T08:01:32.541Z,101423.78
2023-01-22T08:04:00.344Z,101409.38
2023-01-22T08:06:33.508Z,101407.41
2023-01-22T08:09:02.365Z,101415.03
2023-01-22T08:11:30.798Z,101416.88
2023-01-22T08:14:02.827Z,101421.78
2023-01-22T08:16:32.750Z,101422.38
2023-01-22T08:19:03.813Z,101429.56
2023-01-22T08:21:32.112Z,101426.28
2023-01-22T08:23:59.819Z,101422.47
2023-01-22T08:26:30.420Z,101430.81
2023-01-22T08:28:59.297Z,101441.97
2023-01-22T08:31:32.559Z,101437.31
2023-01-22T08:34:03.433Z,101445.19
2023-01-22T08:36:36.141Z,101447.03
2023-01-22T08:39:04.362Z,101459.19
2023-01-22T08:41:33.198Z,101442.81
2023-01-22T08:44:07.139Z,101445.91
2023-01-22T08:46:41.101Z,101421.50
2023-01-22T08:49:11.687Z,101440.41
2023-01-22T08:51:44.310Z,101442.63
2023-01-22T08:54:13.296Z,101452.09
2023-01-22T08:56:41.444Z,101454.19
2023-01-22T08:59:16.076Z,101440.53
2023-01-22T09:01:54.196Z,101456.19
2023-01-22T09:04:31.388Z,101454.78
2023-01-22T09:07:20.211Z,101454.06
2023-01-22T09:09:49.057Z,101458.81
2023-01-22T09:12:18.036Z,101466.59
2023-01-22T09:14:49.305Z,101448.13
2023-01-22T09:17:20.135Z,101470.75
2023-01-22T09:20:00.281Z,101477.78
2023-01-22T09:22:32.093Z,101469.56
2023-01-22T09:25:10.739Z,101478.63
2023-01-22T09:27:39.392Z,101476.03
2023-01-22T09:30:15.619Z,101473.19
2023-01-22T09:32:51.234Z,101486.63
2023-01-22T09:35:28.260Z,101457.84
2023-01-22T09:37:56.920Z,101456.47
2023-01-22T09:40:32.095Z,101485.75
2023-01-22T09:43:06.291Z,101484.53
2023-01-22T09:45:38.379Z,101486.09
2023-01-22T09:48:15.250Z,101499.06
2023-01-22T09:50:47.153Z,101481.56
2023-01-22T09:53:24.119Z,101468.31
2023-01-22T09:56:05.297Z,101489.16
2023-01-22T09:58:35.833Z,101484.97
2023-01-22T10:01:08.868Z,101477.00
2023-01-22T10:03:42.131Z,101412.41
2023-01-22T10:06:18.530Z,101485.34
2023-01-22T10:08:58.051Z,101481.22
2023-01-22T10:11:31.219Z,101489.44
2023-01-22T10:14:03.252Z,101476.22
2023-01-22T10:16:31.132Z,101488.69
2023-01-22T10:19:04.366Z,101491.28
2023-01-22T10:21:34.910Z,101491.69
2023-01-22T10:24:02.786Z,101494.34
2023-01-22T10:26:37.912Z,101488.28
2023-01-22T10:29:11.789Z,101483.06
2023-01-22T10:31:48.898Z,101487.72
2023-01-22T10:34:28.847Z,101487.44
2023-01-22T10:37:04.919Z,101491.81
2023-01-22T10:39:44.914Z,101490.84
2023-01-22T10:42:18.239Z,101493.41
2023-01-22T10:44:51.376Z,101495.84
2023-01-22T10:47:28.499Z,101504.06
2023-01-22T10:50:10.921Z,101494.06
2023-01-22T10:52:42.898Z,101485.28
2023-01-22T10:55:25.898Z,101487.63
2023-01-22T10:58:11.672Z,101480.25
2023-01-22T11:00:52.311Z,101494.47
2023-01-22T11:03:24.768Z,101497.09
2023-01-22T11:06:00.032Z,101493.72
2023-01-22T11:08:37.706Z,101496.41
2023-01-22T11:11:12.392Z,101490.38
2023-01-22T11:13:47.527Z,101499.56
2023-01-22T11:16:18.389Z,101501.44
2023-01-22T11:18:54.850Z,101494.25
2023-01-22T11:21:28.462Z,101501.44
2023-01-22T11:24:03.909Z,101494.47
2023-01-22T11:26:53.114Z,101503.44
2023-01-22T11:29:54.172Z,101492.19
2023-01-22T11:32:53.480Z,101499.63
2023-01-22T11:35:33.349Z,101505.94
2023-01-22T11:38:22.600Z,101501.38
2023-01-22T11:41:16.962Z,101498.34
2023-01-22T11:44:05.181Z,101496.97
2023-01-22T11:46:48.181Z,101497.94
2023-01-22T11:49:28.497Z,101495.00
2023-01-22T11:52:12.792Z,101496.84
2023-01-22T11:55:05.489Z,101496.13
2023-01-22T11:57:46.044Z,101488.72
2023-01-22T12:00:41.759Z,101487.13
2023-01-22T12:03:50.115Z,101480.97
2023-01-22T12:06:30.977Z,101484.25
2023-01-22T12:09:12.557Z,101469.47
2023-01-22T12:12:00.660Z,101466.19
2023-01-22T12:14:49.234Z,101473.69
2023-01-22T12:17:39.900Z,101472.84
2023-01-22T12:20:38.701Z,101472.56
2023-01-22T12:23:11.513Z,101473.41
2023-01-22T12:25:49.682Z,101474.72
2023-01-22T12:28:30.691Z,101470.72
2023-01-22T12:31:03.735Z,101480.84
2023-01-22T12:33:41.795Z,101471.69
2023-01-22T12:36:17.222Z,101480.19
2023-01-22T12:38:56.974Z,101467.13
2023-01-22T12:42:02.791Z,101471.94
2023-01-22T12:44:43.848Z,101474.09
2023-01-22T12:47:28.442Z,101466.16
2023-01-22T12:50:00.214Z,101477.75
2023-01-22T12:52:33.194Z,101470.22
2023-01-22T12:55:05.435Z,101465.16
2023-01-22T12:57:43.711Z,101475.56
2023-01-22T13:00:34.665Z,101477.03
2023-01-22T13:03:30.937Z,101488.91
2023-01-22T13:06:09.117Z,101483.88
2023-01-22T13:08:47.310Z,101486.09
2023-01-22T13:11:28.014Z,101488.03
2023-01-22T13:14:09.970Z,101480.56
2023-01-22T13:16:43.639Z,101487.56
2023-01-22T13:19:31.497Z,101491.25
2023-01-22T13:22:09.462Z,101494.44
2023-01-22T13:24:37.387Z,101493.63
2023-01-22T13:27:07.795Z,101492.69
2023-01-22T13:29:42.379Z,101494.88
2023-01-22T13:32:20.593Z,101490.56
2023-01-22T13:34:49.990Z,101498.44
2023-01-22T13:37:29.244Z,101502.22
2023-01-22T13:39:59.269Z,101499.66
2023-01-22T13:42:30.524Z,101501.56
2023-01-22T13:44:58.708Z,101498.72
2023-01-22T13:47:38.064Z,101499.09
2023-01-22T13:50:20.461Z,101511.06
2023-01-22T13:52:51.350Z,101509.03
2023-01-22T13:55:24.295Z,101505.38
2023-01-22T13:57:54.887Z,101512.72
2023-01-22T14:00:29.595Z,101510.09
2023-01-22T14:03:03.627Z,101513.34
2023-01-22T14:05:41.903Z,101503.91
2023-01-22T14:08:12.390Z,101510.75
2023-01-22T14:10:48.667Z,101512.72
2023-01-22T14:13:19.459Z,101517.53
2023-01-22T14:16:00.217Z,101513.03
2023-01-22T14:18:33.944Z,101528.38
2023-01-22T14:21:03.144Z,101514.47
2023-01-22T14:23:33.657Z,101520.97
2023-01-22T14:26:04.281Z,101519.81
2023-01-22T14:28:46.068Z,101524.34
2023-01-22T14:31:16.863Z,101513.88
2023-01-22T14:33:47.020Z,101520.22
2023-01-22T14:36:23.274Z,101528.50
2023-01-22T14:38:53.554Z,101529.91
2023-01-22T14:41:26.626Z,101517.06
2023-01-22T14:43:57.047Z,101525.41
2023-01-22T14:46:28.243Z,101536.56
2023-01-22T14:48:59.854Z,101532.91
2023-01-22T14:51:35.316Z,101520.16
2023-01-22T14:54:04.449Z,101537.84
2023-01-22T14:56:37.910Z,101546.97
2023-01-22T14:59:11.154Z,101532.22
2023-01-22T15:01:45.275Z,101542.28
2023-01-22T15:04:15.709Z,101515.84
2023-01-22T15:06:51.825Z,101545.19
2023-01-22T15:09:20.156Z,101539.78
2023-01-22T15:12:01.841Z,101538.69
2023-01-22T15:14:31.762Z,101547.63
2023-01-22T15:17:04.604Z,101532.69
2023-01-22T15:19:48.104Z,101550.63
2023-01-22T15:22:17.992Z,101547.03
2023-01-22T15:24:47.343Z,101545.38
2023-01-22T15:27:19.006Z,101560.34
2023-01-22T15:29:53.419Z,101554.38
2023-01-22T15:32:26.914Z,101564.00
2023-01-22T15:34:58.359Z,101570.78
2023-01-22T15:37:33.296Z,101578.72
2023-01-22T15:40:04.495Z,101568.94
2023-01-22T15:42:38.218Z,101562.47
2023-01-22T15:45:10.231Z,101565.16
2023-01-22T15:47:40.495Z,101579.31
2023-01-22T15:50:20.435Z,101576.78
2023-01-22T15:52:55.718Z,101584.38
2023-01-22T15:55:28.154Z,101583.09
2023-01-22T15:58:04.837Z,101578.34
2023-01-22T16:00:35.330Z,101585.41
2023-01-22T16:03:04.506Z,101581.69
2023-01-22T16:05:34.005Z,101584.50
2023-01-22T16:08:08.650Z,101588.47
2023-01-22T16:10:38.187Z,101585.66
2023-01-22T16:13:13.021Z,101583.38
2023-01-22T16:15:47.935Z,101588.75
2023-01-22T16:18:22.314Z,101587.91
2023-01-22T16:20:50.514Z,101588.59
2023-01-22T16:23:22.749Z,101591.19
2023-01-22T16:26:05.948Z,101593.59
2023-01-22T16:28:35.364Z,101596.69
2023-01-22T16:31:06.636Z,101598.53
2023-01-22T16:33:45.531Z,101602.63
2023-01-22T16:36:17.661Z,101613.50
2023-01-22T16:38:54.104Z,101621.81
2023-01-22T16:41:29.742Z,101610.69
2023-01-22T16:44:05.856Z,101620.28
2023-01-22T16:46:40.603Z,101617.19
2023-01-22T16:49:17.626Z,101600.34
2023-01-22T16:51:47.916Z,101621.28
2023-01-22T16:54:24.305Z,101620.31
2023-01-22T16:56:54.040Z,101619.72
2023-01-22T16:59:22.697Z,101625.78
2023-01-22T17:01:51.613Z,101631.03
2023-01-22T17:04:22.584Z,101623.66
2023-01-22T17:06:54.047Z,101628.75
2023-01-22T17:09:29.612Z,101620.56
2023-01-22T17:12:03.335Z,101626.06
2023-01-22T17:14:36.065Z,101641.75
2023-01-22T17:17:06.362Z,101638.50
2023-01-22T17:19:37.881Z,101644.00
2023-01-22T17:22:13.532Z,101651.50
2023-01-22T17:24:46.200Z,101653.88
2023-01-22T17:27:30.464Z,101660.69
2023-01-22T17:30:00.230Z,101647.00
2023-01-22T17:32:29.860Z,101657.88
2023-01-22T17:35:00.152Z,101661.53
2023-01-22T17:37:28.926Z,101662.91
2023-01-22T17:40:14.796Z,101664.34
2023-01-22T17:42:45.210Z,101659.66
2023-01-22T17:45:28.127Z,101660.81
2023-01-22T17:47:59.985Z,101665.91
2023-01-22T17:50:36.235Z,101672.22
2023-01-22T17:53:05.245Z,101661.25
2023-01-22T17:55:34.519Z,101668.69
2023-01-22T17:58:09.187Z,101678.88
2023-01-22T18:00:40.045Z,101685.22
2023-01-22T18:03:09.434Z,101674.75
2023-01-22T18:05:37.991Z,101680.69
2023-01-22T18:08:06.609Z,101675.91
2023-01-22T18:10:39.531Z,101667.97
2023-01-22T18:13:08.711Z,101692.81
2023-01-22T18:15:38.889Z,101681.53
2023-01-22T18:18:08.260Z,101695.66
2023-01-22T18:20:39.700Z,101694.81
2023-01-22T18:23:10.470Z,101686.75
2023-01-22T18:25:49.568Z,101687.06
2023-01-22T18:28:19.347Z,101696.28
2023-01-22T18:30:53.929Z,101697.34
2023-01-22T18:33:23.124Z,101691.09
2023-01-22T18:35:57.038Z,101698.94
2023-01-22T18:38:28.587Z,101702.66
2023-01-22T18:41:05.416Z,101670.59
2023-01-22T18:43:36.243Z,101709.63
2023-01-22T18:46:19.622Z,101710.03
2023-01-22T18:48:48.620Z,101701.34
2023-01-22T18:51:24.727Z,101712.25
2023-01-22T18:53:56.186Z,101716.22
2023-01-22T18:56:39.319Z,101713.22
2023-01-22T18:59:09.494Z,101717.91
2023-01-22T19:01:53.044Z,101719.44
2023-01-22T19:04:22.305Z,101677.63
2023-01-22T19:06:56.995Z,101717.72
2023-01-22T19:09:28.873Z,101734.63
2023-01-22T19:12:13.483Z,101716.84
2023-01-22T19:14:48.410Z,101725.66
2023-01-22T19:17:37.290Z,101678.16
2023-01-22T19:20:16.569Z,101699.47
2023-01-22T19:22:54.710Z,101623.44
2023-01-22T19:25:57.200Z,101721.97
2023-01-22T19:28:30.087Z,101715.97
2023-01-22T19:31:13.080Z,101743.44
2023-01-22T19:33:46.396Z,101748.97
2023-01-22T19:36:33.191Z,101752.47
2023-01-22T19:39:05.457Z,101746.59
2023-01-22T19:41:36.060Z,101734.50
2023-01-22T19:44:16.966Z,101704.53
2023-01-22T19:46:46.931Z,101762.75
2023-01-22T19:49:18.418Z,101735.53
2023-01-22T19:51:49.357Z,101638.66
2023-01-22T19:54:20.003Z,101759.84
2023-01-22T19:56:48.695Z,101752.88
2023-01-22T19:59:26.340Z,101748.94
2023-01-22T20:02:03.621Z,101712.09
2023-01-22T20:04:37.179Z,101722.94
2023-01-22T20:07:07.771Z,101768.72
2023-01-22T20:09:38.954Z,101778.03
2023-01-22T20:12:19.361Z,101780.44
2023-01-22T20:14:52.705Z,101757.19
2023-01-22T20:17:22.905Z,101780.19
2023-01-22T20:19:54.699Z,101786.03
2023-01-22T20:22:27.730Z,101791.50
2023-01-22T20:24:58.406Z,101782.78
2023-01-22T20:27:27.701Z,101767.75
2023-01-22T20:30:09.199Z,101761.56
2023-01-22T20:32:37.932Z,101737.53
2023-01-22T20:35:33.293Z,101764.31
2023-01-22T20:38:02.624Z,101778.47
2023-01-22T20:40:34.684Z,101756.00
2023-01-22T20:43:06.163Z,101780.13
2023-01-22T20:45:41.849Z,101781.28
2023-01-22T20:48:13.579Z,101773.53
2023-01-22T20:50:45.533Z,101780.47
2023-01-22T20:53:13.669Z,101709.59
2023-01-22T20:55:45.431Z,101763.38
2023-01-22T20:58:19.042Z,101778.50
2023-01-22T21:00:48.977Z,101791.66
2023-01-22T21:03:20.822Z,101768.44
2023-01-22T21:05:52.204Z,101791.47
2023-01-22T21:08:25.213Z,101794.31
2023-01-22T21:10:58.357Z,101768.00
2023-01-22T21:13:28.494Z,101792.16
2023-01-22T21:16:07.765Z,101796.44
2023-01-22T21:18:42.399Z,101772.50
2023-01-22T21:21:13.323Z,101790.81
2023-01-22T21:23:43.333Z,101795.47
2023-01-22T21:26:14.742Z,101792.53
2023-01-22T21:28:45.114Z,101772.69
2023-01-22T21:31:19.224Z,101774.22
2023-01-22T21:33:52.539Z,101790.53
2023-01-22T21:36:23.513Z,101785.88
2023-01-22T21:38:51.836Z,101785.34
2023-01-22T21:41:20.716Z,101783.22
2023-01-22T21:44:09.633Z,101781.34
2023-01-22T21:46:47.502Z,101765.06
2023-01-22T21:49:30.367Z,101781.97
2023-01-22T21:52:01.604Z,101781.72
2023-01-22T21:54:38.799Z,101790.59
2023-01-22T21:57:09.918Z,101788.44
2023-01-22T21:59:39.104Z,101783.47
2023-01-22T22:02:21.682Z,101809.50
2023-01-22T22:04:50.023Z,101802.34
2023-01-22T22:07:22.329Z,101805.72
2023-01-22T22:09:51.502Z,101812.38
2023-01-22T22:12:21.199Z,101812.13
2023-01-22T22:14:49.575Z,101792.38
2023-01-22T22:17:19.444Z,101808.41
2023-01-22T22:19:59.552Z,101811.22
2023-01-22T22:22:32.402Z,101798.66
2023-01-22T22:25:04.452Z,101800.56
2023-01-22T22:27:33.868Z,101802.69
2023-01-22T22:30:02.059Z,101776.25
2023-01-22T22:32:31.912Z,101828.22
2023-01-22T22:35:06.789Z,101823.03
2023-01-22T22:37:37.827Z,101830.06
2023-01-22T22:40:06.830Z,101829.66
2023-01-22T22:42:38.268Z,101817.88
2023-01-22T22:45:10.211Z,101822.25
2023-01-22T22:47:39.535Z,101827.72
2023-01-22T22:50:11.225Z,101835.53
2023-01-22T22:52:41.406Z,101829.13
2023-01-22T22:55:13.183Z,101784.63
2023-01-22T22:58:02.170Z,101809.25
2023-01-22T23:00:32.047Z,101823.22
2023-01-22T23:03:03.580Z,101832.47
2023-01-22T23:05:41.232Z,101823.03
2023-01-22T23:08:12.906Z,101832.28
2023-01-22T23:10:47.276Z,101828.09
2023-01-22T23:13:17.127Z,101835.28
2023-01-22T23:15:50.945Z,101832.06
2023-01-22T23:18:22.090Z,101824.75
2023-01-22T23:20:50.276Z,101782.75
2023-01-22T23:23:18.682Z,101820.72
2023-01-22T23:25:47.247Z,101813.09
2023-01-22T23:28:16.671Z,101833.00
2023-01-22T23:30:47.013Z,101824.19
2023-01-22T23:33:21.091Z,101824.56
2023-01-22T23:35:52.463Z,101834.56
2023-01-22T23:38:21.887Z,101833.25
2023-01-22T23:40:58.326Z,101835.03
2023-01-22T23:43:32.811Z,101846.06
2023-01-22T23:46:08.575Z,101840.63
2023-01-22T23:48:38.931Z,101842.81
2023-01-22T23:51:15.483Z,101835.41
2023-01-22T23:53:47.272Z,101838.63
2023-01-22T23:56:17.742Z,101841.75
2023-01-22T23:58:50.178Z,101809.63
